Time;durP1;ratioP1;P1;durP2;ratioP2;P2;SDS_P1;SDS_P2;PMS_P1;PMS_P2;Temp;Humidity;BMP_temperature;BMP_pressure;BME280_temperature;BME280_humidity;BME280_pressure;Samples;Min_cycle;Max_cycle;Signal;HPM_P1;HPM_P2
2021/06/18 00:00:15;;;;;;;10.00;8.32;;;512.30;2380.80;;;;;;5058088;28;20021;-79
2021/06/18 00:02:41;;;;;;;11.80;8.40;;;512.40;2380.80;;;;;;5057947;28;20053;-80
2021/06/18 00:05:12;;;;;;;11.88;9.10;;;512.30;2380.80;;;;;;5057873;28;20513;-80
2021/06/18 00:07:37;;;;;;;10.40;8.80;;;512.10;2380.80;;;;;;5057930;28;20020;-79
2021/06/18 00:10:09;;;;;;;11.65;9.55;;;512.10;2380.80;;;;;;5063807;28;20030;-82
2021/06/18 00:12:35;;;;;;;10.15;8.57;;;512.10;2380.80;;;;;;5069510;28;20028;-79
2021/06/18 00:15:02;;;;;;;9.90;8.38;;;512.00;2380.80;;;;;;5087869;28;20025;-80
2021/06/18 00:17:28;;;;;;;13.05;8.57;;;512.00;2380.80;;;;;;5070780;28;20016;-80
2021/06/18 00:19:54;;;;;;;12.07;9.05;;;487.30;2380.80;;;;;;5070656;28;20017;-81
2021/06/18 00:22:20;;;;;;;13.82;8.93;;;487.10;2380.80;;;;;;5070305;28;20016;-79
2021/06/18 00:24:46;;;;;;;12.05;8.63;;;487.10;2380.80;;;;;;5070430;28;20054;-81
2021/06/18 00:27:12;;;;;;;12.23;9.43;;;487.10;2380.80;;;;;;5070990;28;20062;-81
2021/06/18 00:29:38;;;;;;;11.80;8.55;;;487.30;2380.80;;;;;;5071942;28;20036;-80
2021/06/18 00:32:04;;;;;;;10.27;8.70;;;487.30;2380.80;;;;;;5089999;28;20448;-80
2021/06/18 00:34:30;;;;;;;11.57;8.32;;;512.00;2380.80;;;;;;5071756;28;20016;-79
2021/06/18 00:36:56;;;;;;;11.80;8.85;;;487.30;2380.80;;;;;;5063902;28;20028;-80
2021/06/18 00:39:22;;;;;;;10.60;8.80;;;487.30;2380.80;;;;;;5076618;28;20024;-79
2021/06/18 00:41:48;;;;;;;11.15;9.38;;;487.30;2380.80;;;;;;5058391;28;20021;-81
2021/06/18 00:44:15;;;;;;;9.82;8.77;;;487.20;2380.80;;;;;;5058689;28;20020;-81
2021/06/18 00:46:40;;;;;;;12.07;8.25;;;487.20;2380.80;;;;;;5058738;28;20021;-80
2021/06/18 00:49:10;;;;;;;11.38;9.18;;;487.30;2380.80;;;;;;5057868;28;20123;-80
2021/06/18 00:51:36;;;;;;;12.05;8.43;;;487.10;2380.80;;;;;;5057870;28;20036;-80
2021/06/18 00:54:02;;;;;;;12.70;8.60;;;487.00;2380.80;;;;;;5075748;28;20041;-80
2021/06/18 00:56:28;;;;;;;9.82;7.65;;;487.10;2380.80;;;;;;5057974;28;20056;-80
2021/06/18 00:58:55;;;;;;;10.18;9.10;;;487.30;2380.80;;;;;;5057387;28;20360;-81
2021/06/18 01:01:20;;;;;;;13.32;9.05;;;487.00;2380.80;;;;;;5057046;28;20103;-81
2021/06/18 01:03:46;;;;;;;11.73;9.00;;;486.80;2380.80;;;;;;5075323;28;20055;-80
2021/06/18 01:06:27;;;;;;;11.55;8.95;;;486.80;2380.80;;;;;;5057231;28;20063;-81
2021/06/18 01:08:58;;;;;;;11.48;8.90;;;486.80;2380.80;;;;;;5057169;28;20029;-80
2021/06/18 01:11:55;;;;;;;10.70;8.52;;;486.90;2380.80;;;;;;5057164;28;20027;-80
2021/06/18 01:14:28;;;;;;;10.75;8.30;;;486.90;2380.80;;;;;;5056415;28;20039;-81
2021/06/18 01:17:08;;;;;;;10.75;8.85;;;487.00;2380.80;;;;;;5056639;28;20082;-81
2021/06/18 01:20:09;;;;;;;11.60;7.72;;;487.00;2380.80;;;;;;5057089;28;20414;-79
2021/06/18 01:22:37;;;;;;;14.80;9.20;;;487.10;2380.80;;;;;;5074553;28;20475;-80
2021/06/18 01:25:24;;;;;;;10.48;8.60;;;486.70;2380.80;;;;;;5056867;28;20107;-80
2021/06/18 01:28:03;;;;;;;10.23;9.05;;;486.90;2380.80;;;;;;5056960;28;20033;-81
2021/06/18 01:30:31;;;;;;;12.70;9.50;;;486.90;2380.80;;;;;;5057231;28;20016;-83
2021/06/18 01:33:04;;;;;;;10.60;8.70;;;486.80;2380.80;;;;;;5056733;28;20024;-83
2021/06/18 01:35:40;;;;;;;11.80;9.15;;;486.70;2380.80;;;;;;5057015;28;20036;-84
2021/06/18 01:38:09;;;;;;;12.68;8.93;;;486.70;2380.80;;;;;;5056689;28;20021;-83
2021/06/18 01:40:35;;;;;;;10.63;9.05;;;486.60;2380.80;;;;;;5056576;28;20020;-83
2021/06/18 01:43:05;;;;;;;12.73;10.05;;;486.60;2380.80;;;;;;5056749;28;20082;-83
2021/06/18 01:45:32;;;;;;;13.45;9.18;;;486.60;2380.80;;;;;;5074577;28;20024;-81
2021/06/18 01:48:00;;;;;;;13.82;9.23;;;486.60;2380.80;;;;;;5056835;28;20028;-84
2021/06/18 01:50:27;;;;;;;12.38;9.10;;;486.60;2380.80;;;;;;5056558;28;20024;-83
2021/06/18 01:53:07;;;;;;;9.85;8.77;;;486.70;2380.80;;;;;;5056781;28;20021;-83
2021/06/18 01:55:35;;;;;;;10.88;9.07;;;486.70;2380.80;;;;;;5057029;28;20081;-82
2021/06/18 01:58:03;;;;;;;10.70;8.93;;;486.60;2380.80;;;;;;5056683;28;20031;-82
2021/06/18 02:00:31;;;;;;;12.10;9.18;;;486.50;2380.80;;;;;;5058634;28;20020;-81
2021/06/18 02:02:59;;;;;;;10.75;8.75;;;486.40;2380.80;;;;;;5065514;28;20048;-81
2021/06/18 02:05:27;;;;;;;13.95;9.05;;;486.40;2380.80;;;;;;5064889;28;20020;-82
2021/06/18 02:07:56;;;;;;;10.57;8.57;;;461.60;2380.80;;;;;;5061432;28;20466;-81
2021/06/18 02:10:23;;;;;;;10.10;8.90;;;486.40;2380.80;;;;;;5056331;28;20016;-83
2021/06/18 02:12:50;;;;;;;12.63;8.70;;;486.40;2380.80;;;;;;5073799;28;20017;-81
2021/06/18 02:15:17;;;;;;;11.15;8.75;;;486.40;2380.80;;;;;;5056297;28;20082;-82
2021/06/18 02:17:45;;;;;;;12.25;9.10;;;486.40;2380.80;;;;;;5056199;28;20017;-82
2021/06/18 02:20:13;;;;;;;10.57;9.13;;;486.50;2380.80;;;;;;5055864;28;20020;-84
2021/06/18 02:22:41;;;;;;;13.05;10.57;;;486.40;2380.80;;;;;;5056086;28;20052;-82
2021/06/18 02:25:09;;;;;;;12.20;9.93;;;461.40;2380.80;;;;;;5055959;28;20032;-83
2021/06/18 02:27:36;;;;;;;11.10;9.10;;;461.30;2380.80;;;;;;5056016;28;20023;-82
2021/06/18 02:30:05;;;;;;;9.77;8.23;;;461.40;2380.80;;;;;;5056053;28;20074;-82
2021/06/18 02:32:33;;;;;;;12.95;8.98;;;461.20;2380.80;;;;;;5055585;28;20028;-83
2021/06/18 02:35:00;;;;;;;10.15;8.55;;;461.40;2380.80;;;;;;5055989;28;20024;-81
2021/06/18 02:37:26;;;;;;;10.20;8.40;;;461.40;2380.80;;;;;;5073884;28;20481;-82
2021/06/18 02:39:52;;;;;;;12.02;8.93;;;461.50;2380.80;;;;;;5055890;28;20120;-83
2021/06/18 02:42:18;;;;;;;15.65;8.93;;;461.40;2380.80;;;;;;5056193;28;20017;-83
2021/06/18 02:44:44;;;;;;;11.20;8.15;;;461.30;2380.80;;;;;;5055938;28;20028;-80
2021/06/18 02:47:12;;;;;;;9.80;8.25;;;461.30;2380.80;;;;;;5055696;28;20020;-83
2021/06/18 02:49:45;;;;;;;12.10;9.18;;;461.40;2380.80;;;;;;5055904;28;20029;-82
2021/06/18 02:52:20;;;;;;;10.25;8.65;;;461.40;2380.80;;;;;;5074183;28;20021;-82
2021/06/18 02:55:12;;;;;;;17.08;9.35;;;461.50;2380.80;;;;;;5073524;28;20024;-81
2021/06/18 02:57:58;;;;;;;9.93;8.70;;;461.40;2380.80;;;;;;5055842;28;20021;-82
2021/06/18 03:00:27;;;;;;;10.32;9.00;;;461.10;2380.80;;;;;;5055467;28;20028;-82
2021/06/18 03:02:56;;;;;;;13.25;8.50;;;460.90;2380.80;;;;;;5055524;28;20052;-83
2021/06/18 03:05:24;;;;;;;12.57;9.25;;;461.10;2380.80;;;;;;5073377;28;20499;-82
2021/06/18 03:08:00;;;;;;;12.18;8.40;;;461.10;2380.80;;;;;;5073330;28;20024;-81
2021/06/18 03:10:28;;;;;;;11.88;9.35;;;461.10;2380.80;;;;;;5055869;28;20115;-82
2021/06/18 03:13:06;;;;;;;14.00;9.75;;;461.10;2380.80;;;;;;5055760;28;20020;-82
2021/06/18 03:15:35;;;;;;;13.40;10.35;;;461.10;2380.80;;;;;;5059351;28;20021;-82
2021/06/18 03:18:01;;;;;;;13.82;10.63;;;461.10;2380.80;;;;;;5059416;28;20024;-82
2021/06/18 03:20:27;;;;;;;16.42;10.93;;;461.20;2380.80;;;;;;5077149;28;20406;-83
2021/06/18 03:23:00;;;;;;;16.52;12.20;;;461.20;2380.80;;;;;;5058998;28;20024;-81
2021/06/18 03:25:28;;;;;;;15.20;11.45;;;461.10;2380.80;;;;;;5059093;28;20459;-82
2021/06/18 03:27:55;;;;;;;13.82;11.75;;;461.10;2380.80;;;;;;5058941;28;20123;-83
2021/06/18 03:30:21;;;;;;;13.90;11.30;;;461.00;2380.80;;;;;;5059118;28;20020;-82
2021/06/18 03:32:49;;;;;;;15.65;11.10;;;461.00;2380.80;;;;;;5059065;28;20021;-82
2021/06/18 03:35:16;;;;;;;11.90;9.88;;;461.00;2380.80;;;;;;5058976;28;20450;-82
2021/06/18 03:37:42;;;;;;;13.95;11.02;;;461.00;2380.80;;;;;;5058774;28;20021;-82
2021/06/18 03:40:09;;;;;;;13.57;11.13;;;461.10;2380.80;;;;;;5058915;28;20043;-81
2021/06/18 03:42:37;;;;;;;13.43;10.82;;;436.10;2355.20;;;;;;5058703;28;20020;-84
2021/06/18 03:45:05;;;;;;;14.18;10.02;;;461.20;2380.80;;;;;;5058819;28;20024;-82
2021/06/18 03:47:33;;;;;;;13.88;10.80;;;461.20;2380.80;;;;;;5058798;28;20051;-83
2021/06/18 03:50:00;;;;;;;13.32;10.32;;;461.00;2380.80;;;;;;5058428;28;20020;-83
2021/06/18 03:52:26;;;;;;;15.00;10.07;;;461.00;2380.80;;;;;;5058494;28;20116;-80
2021/06/18 03:54:52;;;;;;;11.25;9.95;;;461.10;2380.80;;;;;;5058683;28;20020;-82
2021/06/18 03:57:19;;;;;;;14.63;10.00;;;461.00;2380.80;;;;;;5058684;28;20116;-81
2021/06/18 03:59:46;;;;;;;11.82;8.90;;;461.00;2380.80;;;;;;5058459;28;20028;-81
2021/06/18 04:02:15;;;;;;;11.95;9.63;;;460.90;2380.80;;;;;;5058285;28;20139;-82
2021/06/18 04:04:43;;;;;;;11.68;8.93;;;460.90;2380.80;;;;;;5058448;28;20427;-82
2021/06/18 04:07:10;;;;;;;12.63;9.40;;;460.80;2380.80;;;;;;5058534;28;20020;-81
2021/06/18 04:09:37;;;;;;;13.50;9.00;;;460.90;2380.80;;;;;;5058212;28;20075;-80
2021/06/18 04:12:06;;;;;;;17.55;9.40;;;460.90;2380.80;;;;;;5058032;28;20032;-80
2021/06/18 04:14:33;;;;;;;15.57;10.88;;;460.90;2380.80;;;;;;5058286;28;20444;-81
2021/06/18 04:16:59;;;;;;;14.77;9.90;;;460.80;2380.80;;;;;;5057819;28;20048;-81
2021/06/18 04:19:25;;;;;;;13.63;10.13;;;461.00;2380.80;;;;;;5058178;28;20052;-81
2021/06/18 04:21:52;;;;;;;10.70;9.27;;;460.90;2380.80;;;;;;5058227;28;20021;-83
2021/06/18 04:24:18;;;;;;;16.48;10.77;;;460.90;2380.80;;;;;;5057411;28;20024;-82
2021/06/18 04:26:44;;;;;;;16.17;10.77;;;436.10;2355.20;;;;;;5075837;28;20469;-81
2021/06/18 04:29:11;;;;;;;15.82;10.57;;;436.10;2355.20;;;;;;5057891;28;20033;-81
2021/06/18 04:31:37;;;;;;;16.50;12.50;;;436.10;2355.20;;;;;;5057741;28;20024;-80
2021/06/18 04:34:07;;;;;;;16.05;11.93;;;436.10;2355.20;;;;;;5075815;28;20441;-80
2021/06/18 04:36:35;;;;;;;13.90;10.40;;;436.10;2355.20;;;;;;5057747;28;20503;-82
2021/06/18 04:39:01;;;;;;;12.13;10.07;;;460.80;2380.80;;;;;;5057501;28;20063;-81
2021/06/18 04:41:28;;;;;;;15.55;11.57;;;461.00;2380.80;;;;;;5057729;28;20113;-81
2021/06/18 04:43:54;;;;;;;13.18;10.80;;;461.10;2380.80;;;;;;5057628;28;20360;-82
2021/06/18 04:46:20;;;;;;;19.45;11.27;;;461.20;2380.80;;;;;;5057489;28;20020;-81
2021/06/18 04:48:45;;;;;;;15.10;10.48;;;461.60;2380.80;;;;;;5057587;28;20032;-82
2021/06/18 04:51:11;;;;;;;17.52;11.27;;;461.10;2380.80;;;;;;5057279;28;20024;-81
2021/06/18 04:53:37;;;;;;;18.23;11.25;;;461.20;2380.80;;;;;;5057138;28;20107;-81
2021/06/18 04:56:04;;;;;;;20.08;12.95;;;461.30;2380.80;;;;;;5057432;28;20116;-82
2021/06/18 04:58:31;;;;;;;14.63;11.02;;;461.10;2380.80;;;;;;5057518;28;20035;-84
2021/06/18 05:00:57;;;;;;;17.35;12.38;;;461.40;2380.80;;;;;;5057222;28;20021;-83
2021/06/18 05:03:23;;;;;;;12.82;11.10;;;461.40;2380.80;;;;;;5075378;28;20091;-83
2021/06/18 05:05:49;;;;;;;22.55;14.68;;;461.50;2380.80;;;;;;5057344;28;20020;-83
2021/06/18 05:08:15;;;;;;;18.13;12.07;;;461.70;2380.80;;;;;;5057441;28;20028;-85
2021/06/18 05:10:41;;;;;;;19.02;11.75;;;461.70;2380.80;;;;;;5057448;28;20021;-83
2021/06/18 05:13:07;;;;;;;21.75;11.75;;;461.70;2380.80;;;;;;5056893;28;20423;-83
2021/06/18 05:15:32;;;;;;;16.67;11.90;;;461.70;2380.80;;;;;;5057036;28;20408;-82
2021/06/18 05:18:00;;;;;;;18.67;12.25;;;486.40;2380.80;;;;;;5056963;28;20028;-82
2021/06/18 05:20:26;;;;;;;21.15;12.85;;;461.70;2380.80;;;;;;5074774;28;20071;-82
2021/06/18 05:22:52;;;;;;;17.17;12.32;;;486.40;2380.80;;;;;;5056988;28;20482;-83
2021/06/18 05:25:18;;;;;;;20.00;11.73;;;486.50;2380.80;;;;;;5056992;28;20368;-82
2021/06/18 05:27:44;;;;;;;18.08;12.15;;;486.60;2380.80;;;;;;5056802;28;20021;-82
2021/06/18 05:30:11;;;;;;;16.35;12.52;;;486.70;2380.80;;;;;;5074277;28;20028;-83
2021/06/18 05:32:37;;;;;;;21.85;12.23;;;486.70;2380.80;;;;;;5074052;28;20210;-82
2021/06/18 05:35:04;;;;;;;14.88;11.40;;;486.70;2380.80;;;;;;5057183;28;20016;-82
2021/06/18 05:37:30;;;;;;;17.65;11.48;;;486.70;2380.80;;;;;;5055907;28;20047;-81
2021/06/18 05:39:56;;;;;;;15.68;10.77;;;486.80;2380.80;;;;;;5056656;28;20498;-83
2021/06/18 05:42:22;;;;;;;14.85;11.35;;;486.90;2380.80;;;;;;5056390;28;20074;-81
2021/06/18 05:44:48;;;;;;;15.43;11.43;;;486.90;2380.80;;;;;;5056032;28;20500;-82
2021/06/18 05:47:13;;;;;;;16.52;11.75;;;487.00;2380.80;;;;;;5056599;28;20024;-81
2021/06/18 05:49:39;;;;;;;17.23;11.82;;;487.00;2380.80;;;;;;5056355;28;20069;-82
2021/06/18 05:52:05;;;;;;;14.82;11.77;;;487.10;2380.80;;;;;;5056168;28;20052;-81
2021/06/18 05:54:31;;;;;;;19.35;11.27;;;487.30;2380.80;;;;;;5055896;28;20535;-83
2021/06/18 05:56:57;;;;;;;14.20;10.75;;;512.00;2380.80;;;;;;5056284;28;20020;-83
2021/06/18 05:59:22;;;;;;;16.13;11.30;;;512.00;2380.80;;;;;;5055830;28;20028;-80
2021/06/18 06:01:48;;;;;;;11.95;10.30;;;512.10;2380.80;;;;;;5056274;28;20047;-83
2021/06/18 06:04:14;;;;;;;12.23;10.50;;;512.30;2380.80;;;;;;5056715;28;20452;-81
2021/06/18 06:06:40;;;;;;;16.73;9.73;;;512.60;2380.80;;;;;;5056677;28;20028;-83
2021/06/18 06:09:06;;;;;;;15.35;9.48;;;512.80;2380.80;;;;;;5073635;28;20111;-81
2021/06/18 06:11:33;;;;;;;12.82;9.35;;;512.90;2380.80;;;;;;5055815;28;20025;-81
2021/06/18 06:14:15;;;;;;;12.88;10.15;;;512.90;2380.80;;;;;;5055971;28;20083;-83
2021/06/18 06:16:41;;;;;;;15.25;10.50;;;537.70;2406.40;;;;;;5056582;28;20020;-83
2021/06/18 06:19:07;;;;;;;10.60;9.05;;;537.80;2406.40;;;;;;5056313;28;20155;-82
2021/06/18 06:21:33;;;;;;;13.95;9.75;;;538.00;2406.40;;;;;;5056227;28;20363;-82
2021/06/18 06:23:58;;;;;;;12.70;9.43;;;538.10;2406.40;;;;;;5056719;28;20025;-82
2021/06/18 06:26:24;;;;;;;12.18;9.27;;;538.40;2406.40;;;;;;5056255;28;20028;-81
2021/06/18 06:28:50;;;;;;;18.05;10.60;;;538.50;2406.40;;;;;;5056318;28;20028;-82
2021/06/18 06:31:16;;;;;;;14.68;10.32;;;538.50;2406.40;;;;;;5056333;28;20059;-81
2021/06/18 06:33:42;;;;;;;18.58;11.60;;;538.50;2406.40;;;;;;5073861;28;20426;-83
2021/06/18 06:36:09;;;;;;;17.58;10.75;;;538.50;2406.40;;;;;;5056393;28;20051;-84
2021/06/18 06:38:35;;;;;;;18.77;10.00;;;538.50;2406.40;;;;;;5056803;28;20051;-83
2021/06/18 06:41:00;;;;;;;13.40;10.52;;;512.90;2380.80;;;;;;5056155;28;20024;-84
2021/06/18 06:43:26;;;;;;;17.08;11.07;;;538.50;2406.40;;;;;;5056183;28;20020;-84
2021/06/18 06:45:52;;;;;;;16.20;10.88;;;563.20;2432.00;;;;;;5056572;28;20456;-83
2021/06/18 06:48:18;;;;;;;23.60;10.38;;;563.20;2432.00;;;;;;5058599;28;20060;-82
2021/06/18 06:50:44;;;;;;;14.13;9.35;;;563.50;2432.00;;;;;;5068512;28;20036;-83
2021/06/18 06:53:10;;;;;;;12.70;9.57;;;563.40;2432.00;;;;;;5074296;28;20032;-84
2021/06/18 06:55:37;;;;;;;13.02;9.90;;;563.40;2432.00;;;;;;5090148;28;20047;-84
2021/06/18 06:58:07;;;;;;;11.23;8.98;;;563.80;2432.00;;;;;;5061939;28;20024;-83
2021/06/18 07:00:33;;;;;;;11.85;8.32;;;563.70;2432.00;;;;;;5059659;28;20029;-83
2021/06/18 07:02:58;;;;;;;10.48;7.75;;;564.00;2432.00;;;;;;5059513;28;20045;-83
2021/06/18 07:05:24;;;;;;;11.75;8.40;;;564.00;2432.00;;;;;;5059652;28;20032;-81
2021/06/18 07:07:50;;;;;;;9.48;7.95;;;564.10;2432.00;;;;;;5059406;28;20066;-83
2021/06/18 07:10:16;;;;;;;10.57;8.27;;;564.10;2432.00;;;;;;5059115;28;20038;-82
2021/06/18 07:12:43;;;;;;;10.73;7.97;;;564.10;2432.00;;;;;;5059225;28;20021;-80
2021/06/18 07:15:09;;;;;;;10.10;7.57;;;589.00;2432.00;;;;;;5059155;28;20032;-78
2021/06/18 07:17:35;;;;;;;10.40;7.50;;;589.00;2432.00;;;;;;5058467;28;20077;-80
2021/06/18 07:20:02;;;;;;;15.20;8.68;;;589.30;2432.00;;;;;;5052130;28;20025;-80
2021/06/18 07:22:30;;;;;;;7.72;6.80;;;589.60;2432.00;;;;;;5044058;28;20031;-79
2021/06/18 07:24:57;;;;;;;8.88;7.63;;;589.70;2432.00;;;;;;5038943;28;20021;-79
2021/06/18 07:27:23;;;;;;;12.18;8.10;;;614.50;2432.00;;;;;;5039053;28;20017;-79
2021/06/18 07:29:52;;;;;;;9.45;7.53;;;614.70;2432.00;;;;;;5038458;28;20040;-81
2021/06/18 07:32:18;;;;;;;11.88;9.05;;;614.70;2432.00;;;;;;5038827;28;20020;-79
2021/06/18 07:34:44;;;;;;;11.70;8.13;;;614.70;2432.00;;;;;;5038714;28;20135;-80
2021/06/18 07:37:10;;;;;;;14.68;8.80;;;614.70;2432.00;;;;;;5038331;28;20078;-77
2021/06/18 07:39:35;;;;;;;10.13;8.18;;;614.70;2432.00;;;;;;5038532;28;20120;-78
2021/06/18 07:42:02;;;;;;;12.63;9.00;;;614.70;2432.00;;;;;;5058675;28;20092;-79
2021/06/18 07:44:28;;;;;;;14.65;8.57;;;615.00;2432.00;;;;;;5057662;28;20024;-78
2021/06/18 07:46:54;;;;;;;12.20;8.13;;;614.80;2432.00;;;;;;5076860;28;20066;-79
2021/06/18 07:49:19;;;;;;;8.35;7.40;;;615.00;2432.00;;;;;;5076550;28;20463;-78
2021/06/18 07:51:45;;;;;;;12.73;8.93;;;;;;;;;;5057845;28;20016;-77
2021/06/18 07:54:11;;;;;;;15.77;12.93;;;640.10;2432.00;;;;;;5058427;28;20017;-80
2021/06/18 07:56:41;;;;;;;15.50;10.57;;;640.20;2432.00;;;;;;5058096;28;20356;-78
2021/06/18 07:59:07;;;;;;;17.23;9.55;;;640.20;2432.00;;;;;;5074878;28;20027;-79
2021/06/18 08:01:32;;;;;;;9.18;8.00;;;640.30;2432.00;;;;;;5056804;28;20392;-79
2021/06/18 08:03:58;;;;;;;10.07;8.10;;;640.20;2432.00;;;;;;5043735;28;20092;-80
2021/06/18 08:06:24;;;;;;;15.02;9.25;;;640.50;2432.00;;;;;;5048132;28;20502;-80
2021/06/18 08:08:50;;;;;;;13.07;7.88;;;640.60;2432.00;;;;;;5060805;28;20036;-82
2021/06/18 08:11:16;;;;;;;15.73;8.38;;;640.50;2432.00;;;;;;5045960;28;20458;-79
2021/06/18 08:13:42;;;;;;;11.55;8.38;;;640.60;2432.00;;;;;;5075928;28;20028;-83
2021/06/18 08:16:08;;;;;;;14.18;8.82;;;640.70;2432.00;;;;;;5057052;28;20028;-82
2021/06/18 08:18:38;;;;;;;15.88;9.00;;;665.60;2432.00;;;;;;5056783;28;20035;-83
2021/06/18 08:21:05;;;;;;;9.50;7.15;;;665.90;2432.00;;;;;;5057980;28;20037;-81
2021/06/18 08:23:32;;;;;;;13.30;8.07;;;665.70;2432.00;;;;;;5057825;28;20460;-81
2021/06/18 08:25:58;;;;;;;10.20;7.55;;;665.90;2432.00;;;;;;5057672;28;20017;-80
2021/06/18 08:28:24;;;;;;;12.55;7.53;;;665.90;2432.00;;;;;;5057941;28;20036;-81
2021/06/18 08:30:50;;;;;;;11.88;8.05;;;666.00;2432.00;;;;;;5057986;28;20020;-81
2021/06/18 08:33:16;;;;;;;9.55;6.90;;;666.10;2432.00;;;;;;5057566;28;20021;-82
2021/06/18 08:35:42;;;;;;;10.18;7.40;;;666.20;2432.00;;;;;;5057038;28;20112;-81
2021/06/18 08:38:08;;;;;;;8.15;6.47;;;666.10;2432.00;;;;;;5075034;28;20052;-82
2021/06/18 08:40:35;;;;;;;9.73;6.75;;;666.10;2432.00;;;;;;5074845;28;20138;-80
2021/06/18 08:43:02;;;;;;;10.30;7.65;;;665.90;2432.00;;;;;;5057689;28;20483;-82
2021/06/18 08:45:29;;;;;;;13.15;7.80;;;666.30;2432.00;;;;;;5056771;28;20032;-82
2021/06/18 08:47:56;;;;;;;10.35;7.18;;;666.30;2432.00;;;;;;5056635;28;20021;-81
2021/06/18 08:50:25;;;;;;;7.72;6.97;;;666.50;2432.00;;;;;;5057317;28;20444;-81
2021/06/18 08:52:55;;;;;;;13.32;8.07;;;691.20;2432.00;;;;;;5057442;28;20526;-81
2021/06/18 08:55:23;;;;;;;7.47;6.13;;;691.40;2432.00;;;;;;5057229;28;20088;-81
2021/06/18 08:57:53;;;;;;;13.30;6.95;;;691.60;2432.00;;;;;;5057442;28;20020;-81
2021/06/18 09:00:21;;;;;;;9.48;6.55;;;691.60;2432.00;;;;;;5056998;28;20017;-81
2021/06/18 09:02:47;;;;;;;9.88;6.95;;;691.70;2432.00;;;;;;5053650;28;20045;-81
2021/06/18 09:05:15;;;;;;;8.65;6.78;;;691.70;2432.00;;;;;;5055092;28;20021;-81
2021/06/18 09:07:47;;;;;;;10.30;7.07;;;691.70;2432.00;;;;;;5053884;28;20024;-82
2021/06/18 09:10:22;;;;;;;10.35;7.63;;;692.00;2432.00;;;;;;5053304;28;20037;-82
2021/06/18 09:13:18;;;;;;;15.02;6.75;;;692.10;2432.00;;;;;;5053293;28;20029;-81
2021/06/18 09:15:59;;;;;;;11.43;7.30;;;716.80;2432.00;;;;;;5053586;28;20118;-82
2021/06/18 09:18:39;;;;;;;11.23;7.10;;;716.90;2432.00;;;;;;5049193;28;20078;-79
2021/06/18 09:21:05;;;;;;;10.23;7.10;;;717.20;2432.00;;;;;;5046965;28;20036;-78
2021/06/18 09:23:43;;;;;;;13.48;8.25;;;717.20;2432.00;;;;;;5038423;28;20017;-77
2021/06/18 09:26:27;;;;;;;10.35;7.72;;;717.70;2432.00;;;;;;5052753;28;20057;-80
2021/06/18 09:29:20;;;;;;;9.80;7.47;;;742.50;2432.00;;;;;;5033715;28;20358;-79
2021/06/18 09:31:55;;;;;;;13.07;6.65;;;742.70;2432.00;;;;;;5032282;28;20075;-80
2021/06/18 09:37:23;;;;;;;9.73;6.55;;;743.00;2329.60;;;;;;5035783;28;20041;-77
2021/06/18 09:40:19;;;;;;;8.57;5.05;;;743.00;2329.60;;;;;;5048517;28;20064;-78
2021/06/18 09:42:45;;;;;;;9.10;6.28;;;742.90;2278.40;;;;;;5051986;28;20453;-76
2021/06/18 09:45:13;;;;;;;16.23;6.82;;;742.90;2304.00;;;;;;5052234;28;20108;-80
2021/06/18 09:47:39;;;;;;;6.35;4.50;;;743.10;2227.20;;;;;;5052220;28;20140;-79
2021/06/18 09:50:26;;;;;;;9.43;6.40;;;743.00;2176.00;;;;;;5051761;28;20068;-79
2021/06/18 09:53:22;;;;;;;5.32;4.40;;;742.80;2201.60;;;;;;5012417;28;20049;-79
2021/06/18 09:56:10;;;;;;;10.57;6.43;;;742.50;2176.00;;;;;;5012370;28;20461;-78
2021/06/18 09:58:48;;;;;;;8.55;5.97;;;717.50;2201.60;;;;;;5011943;28;20030;-77
2021/06/18 10:01:15;;;;;;;12.95;8.20;;;717.40;2252.80;;;;;;5012982;28;20351;-79
2021/06/18 10:04:07;;;;;;;8.63;4.43;;;717.40;2227.20;;;;;;5015126;28;20049;-78
2021/06/18 10:06:38;;;;;;;9.10;5.28;;;717.30;2124.80;;;;;;5015546;28;20156;-80
2021/06/18 10:09:05;;;;;;;11.05;6.03;;;717.30;2201.60;;;;;;5032830;28;20124;-79
2021/06/18 10:11:33;;;;;;;11.10;5.13;;;717.40;2227.20;;;;;;5015071;28;20112;-78
2021/06/18 10:13:59;;;;;;;7.72;5.38;;;717.50;2150.40;;;;;;5050285;28;20074;-79
2021/06/18 10:16:26;;;;;;;14.30;5.80;;;717.50;2124.80;;;;;;5055127;28;20078;-79
2021/06/18 10:18:59;;;;;;;6.13;4.18;;;717.50;2124.80;;;;;;5054834;28;20032;-79
2021/06/18 10:21:27;;;;;;;7.93;5.65;;;717.40;2048.00;;;;;;5054817;28;20067;-79
2021/06/18 10:24:03;;;;;;;10.18;5.25;;;717.60;2022.40;;;;;;5054816;28;20025;-81
2021/06/18 10:26:30;;;;;;;9.35;4.25;;;742.50;2048.00;;;;;;5052044;28;20115;-78
2021/06/18 10:28:59;;;;;;;5.50;3.47;;;742.60;2022.40;;;;;;5042049;28;20032;-79
2021/06/18 10:31:27;;;;;;;7.95;4.68;;;742.50;2022.40;;;;;;5035382;28;20028;-81
2021/06/18 10:34:16;;;;;;;8.27;5.53;;;742.60;2022.40;;;;;;5035752;28;20021;-78
2021/06/18 10:36:43;;;;;;;6.53;4.53;;;742.80;2022.40;;;;;;5035807;28;20107;-79
2021/06/18 10:39:15;;;;;;;9.20;7.43;;;742.80;2022.40;;;;;;5052905;28;20020;-79
2021/06/18 10:41:44;;;;;;;;;;;742.80;1996.80;;;;;;5036000;28;20017;-79
2021/06/18 10:44:10;;;;;;;8.48;6.65;;;742.70;1996.80;;;;;;5035590;28;20255;-79
2021/06/18 10:46:36;;;;;;;9.25;4.30;;;742.80;1971.20;;;;;;5035332;28;20112;-80
2021/06/18 10:49:15;;;;;;;8.98;6.70;;;742.90;1945.60;;;;;;5035677;28;20082;-79
2021/06/18 10:51:42;;;;;;;9.02;5.85;;;742.90;1971.20;;;;;;5040692;28;20024;-79
2021/06/18 10:54:26;;;;;;;7.63;5.55;;;742.90;1971.20;;;;;;5072413;28;20020;-79
2021/06/18 10:56:55;;;;;;;7.10;4.75;;;743.00;1971.20;;;;;;5054949;28;20017;-78
2021/06/18 10:59:32;;;;;;;7.60;5.78;;;743.10;1971.20;;;;;;5072654;28;20479;-77
2021/06/18 11:02:01;;;;;;;7.65;4.82;;;743.00;1945.60;;;;;;5054571;28;20036;-81
2021/06/18 11:04:46;;;;;;;9.88;5.45;;;743.00;1945.60;;;;;;5054988;28;20060;-81
2021/06/18 11:07:25;;;;;;;7.93;4.88;;;743.00;1971.20;;;;;;5072590;28;20456;-82
2021/06/18 11:09:57;;;;;;;6.65;4.47;;;743.00;1996.80;;;;;;5071494;28;20368;-82
2021/06/18 11:12:22;;;;;;;;;;;743.00;1971.20;;;;;;5043771;28;20013;-80
2021/06/18 11:14:52;;;;;;;8.45;5.53;;;743.00;1996.80;;;;;;5048403;28;19907;-80
2021/06/18 11:17:40;;;;;;;6.30;4.75;;;742.90;1996.80;;;;;;5051900;28;20364;-81
2021/06/18 11:20:06;;;;;;;8.30;5.60;;;742.90;1996.80;;;;;;5049697;28;20024;-82
2021/06/18 11:25:32;;;;;;;8.23;5.03;;;742.60;2022.40;;;;;;5072517;28;20062;-84
2021/06/18 11:28:26;;;;;;;12.77;5.85;;;742.60;1996.80;;;;;;5072270;28;20016;-81
2021/06/18 11:30:57;;;;;;;9.23;5.10;;;742.60;2022.40;;;;;;5052901;28;20029;-82
2021/06/18 11:33:51;;;;;;;16.05;12.82;;;742.50;2022.40;;;;;;5054781;28;20021;-81
2021/06/18 11:36:23;;;;;;;20.83;12.57;;;742.50;2048.00;;;;;;5057742;28;20032;-82
2021/06/18 11:38:50;;;;;;;9.77;6.10;;;742.50;2073.60;;;;;;5058996;28;20020;-81
2021/06/18 11:41:23;;;;;;;8.50;5.15;;;742.50;2048.00;;;;;;5059074;28;20024;-81
2021/06/18 11:43:55;;;;;;;10.80;5.70;;;742.40;2048.00;;;;;;5059346;28;20045;-82
2021/06/18 11:46:22;;;;;;;8.25;5.40;;;742.40;2048.00;;;;;;5079474;28;20016;-82
2021/06/18 11:48:49;;;;;;;7.75;5.28;;;742.40;2048.00;;;;;;5062485;28;20033;-82
2021/06/18 11:51:29;;;;;;;8.18;4.68;;;742.40;2022.40;;;;;;5062787;28;20478;-83
2021/06/18 11:53:56;;;;;;;6.60;5.00;;;717.70;1996.80;;;;;;5060593;28;20436;-82
2021/06/18 11:56:30;;;;;;;5.85;4.32;;;717.70;1996.80;;;;;;5058256;28;20020;-81
2021/06/18 11:58:55;;;;;;;7.80;4.82;;;717.70;1971.20;;;;;;5058524;28;20337;-84
2021/06/18 12:01:25;;;;;;;9.85;4.68;;;717.70;2048.00;;;;;;5058197;28;20024;-81
2021/06/18 12:03:53;;;;;;;7.97;4.97;;;717.60;1996.80;;;;;;5058310;28;20028;-81
2021/06/18 12:06:21;;;;;;;7.35;4.38;;;717.70;1996.80;;;;;;5076256;28;20452;-79
2021/06/18 12:09:17;;;;;;;9.00;5.22;;;717.70;1996.80;;;;;;5058030;28;20033;-77
2021/06/18 12:12:00;;;;;;;9.60;4.10;;;717.70;1996.80;;;;;;5048949;28;20032;-77
2021/06/18 12:14:34;;;;;;;7.03;4.90;;;742.40;1996.80;;;;;;5057793;28;20360;-75
2021/06/18 12:17:02;;;;;;;9.05;6.70;;;742.40;2022.40;;;;;;5050472;28;20017;-78
2021/06/18 12:19:42;;;;;;;11.23;7.45;;;742.40;1996.80;;;;;;5056057;28;20024;-77
2021/06/18 12:22:32;;;;;;;11.50;7.15;;;742.50;1996.80;;;;;;5017039;28;20025;-77
2021/06/18 12:24:59;;;;;;;13.32;4.43;;;742.50;2022.40;;;;;;5036651;28;20036;-77